createdAt,value
2018-12-02T00:00:54.947Z,2.40
2018-12-02T00:03:23.998Z,2.40
2018-12-02T00:05:52.752Z,2.50
2018-12-02T00:08:21.505Z,2.50
2018-12-02T00:10:50.418Z,2.50
2018-12-02T00:13:19.273Z,2.50
2018-12-02T00:15:48.065Z,2.50
2018-12-02T00:18:16.814Z,2.60
2018-12-02T00:20:45.603Z,2.60
2018-12-02T00:23:14.421Z,2.60
2018-12-02T00:25:43.206Z,2.70
2018-12-02T00:28:12.140Z,2.70
2018-12-02T00:30:41.297Z,2.80
2018-12-02T00:33:10.060Z,2.80
2018-12-02T00:35:38.880Z,2.90
2018-12-02T00:38:08.617Z,2.80
2018-12-02T00:40:37.453Z,2.90
2018-12-02T00:43:07.827Z,2.80
2018-12-02T00:45:37.891Z,2.90
2018-12-02T00:48:08.776Z,2.90
2018-12-02T00:50:37.653Z,2.90
2018-12-02T00:53:07.986Z,2.90
2018-12-02T00:55:38.355Z,3.00
2018-12-02T00:58:07.128Z,3.00
2018-12-02T01:00:35.960Z,3.00
2018-12-02T01:03:04.917Z,3.00
2018-12-02T01:05:33.722Z,3.00
2018-12-02T01:08:02.470Z,3.00
2018-12-02T01:10:31.265Z,3.10
2018-12-02T01:13:00.350Z,3.00
2018-12-02T01:15:30.454Z,3.10
2018-12-02T01:17:59.173Z,3.10
2018-12-02T01:20:28.017Z,3.10
2018-12-02T01:22:56.809Z,3.10
2018-12-02T01:25:25.574Z,3.10
2018-12-02T01:27:54.368Z,3.20
2018-12-02T01:30:24.103Z,3.20
2018-12-02T01:32:53.869Z,3.20
2018-12-02T01:35:22.650Z,3.30
2018-12-02T01:37:51.521Z,3.30
2018-12-02T01:40:22.495Z,3.20
2018-12-02T01:42:52.337Z,3.30
2018-12-02T01:45:22.979Z,3.30
2018-12-02T01:47:52.035Z,3.30
2018-12-02T01:50:22.513Z,3.30
2018-12-02T01:52:52.166Z,3.30
2018-12-02T01:55:20.947Z,3.40
2018-12-02T01:57:49.687Z,3.40
2018-12-02T02:00:21.522Z,3.40
2018-12-02T02:02:50.675Z,3.40
2018-12-02T02:05:20.356Z,3.40
2018-12-02T02:07:49.173Z,3.40
2018-12-02T02:10:20.793Z,3.50
2018-12-02T02:12:49.618Z,3.50
2018-12-02T02:15:18.553Z,3.50
2018-12-02T02:17:47.776Z,3.50
2018-12-02T02:20:20.393Z,3.60
2018-12-02T02:22:49.176Z,3.60
2018-12-02T02:25:18.802Z,3.60
2018-12-02T02:27:51.942Z,3.60
2018-12-02T02:30:22.773Z,3.70
2018-12-02T02:32:51.597Z,3.70
2018-12-02T02:35:21.541Z,3.70
2018-12-02T02:37:52.287Z,3.60
2018-12-02T02:40:22.383Z,3.60
2018-12-02T02:42:51.157Z,3.60
2018-12-02T02:45:19.942Z,3.60
2018-12-02T02:47:48.722Z,3.70
2018-12-02T02:50:22.469Z,3.70
2018-12-02T02:52:53.308Z,3.70
2018-12-02T02:55:22.113Z,3.70
2018-12-02T02:57:50.885Z,3.70
2018-12-02T03:00:20.697Z,3.70
2018-12-02T03:02:49.492Z,3.70
2018-12-02T03:05:18.445Z,3.70
2018-12-02T03:07:47.269Z,3.80
2018-12-02T03:10:17.066Z,3.70
2018-12-02T03:12:47.055Z,3.70
2018-12-02T03:15:17.745Z,3.70
2018-12-02T03:17:46.600Z,3.80
2018-12-02T03:20:17.143Z,3.80
2018-12-02T03:22:56.035Z,3.90
2018-12-02T03:25:26.604Z,3.90
2018-12-02T03:27:55.615Z,3.90
2018-12-02T03:30:25.254Z,4.00
2018-12-02T03:32:54.286Z,4.00
2018-12-02T03:35:25.038Z,4.10
2018-12-02T03:37:54.566Z,4.10
2018-12-02T03:40:27.074Z,4.10
2018-12-02T03:42:56.057Z,4.20
2018-12-02T03:45:25.844Z,4.20
2018-12-02T03:47:54.700Z,4.20
2018-12-02T03:50:23.942Z,4.30
2018-12-02T03:52:52.803Z,4.30
2018-12-02T03:55:21.638Z,4.30
2018-12-02T03:57:50.470Z,4.30
2018-12-02T04:00:23.223Z,4.40
2018-12-02T04:02:52.686Z,4.40
2018-12-02T04:05:22.277Z,4.40
2018-12-02T04:07:51.578Z,4.40
2018-12-02T04:10:20.749Z,4.50
2018-12-02T04:12:50.508Z,4.50
2018-12-02T04:15:21.266Z,4.50
2018-12-02T04:17:50.058Z,4.50
2018-12-02T04:20:19.458Z,4.50
2018-12-02T04:22:50.036Z,4.40
2018-12-02T04:25:20.083Z,4.40
2018-12-02T04:27:48.837Z,4.40
2018-12-02T04:30:18.552Z,4.30
2018-12-02T04:32:48.408Z,4.30
2018-12-02T04:35:19.889Z,4.30
2018-12-02T04:37:48.730Z,4.30
2018-12-02T04:40:17.489Z,4.30
2018-12-02T04:42:46.284Z,4.30
2018-12-02T04:45:18.661Z,4.20
2018-12-02T04:47:47.526Z,4.20
2018-12-02T04:50:18.072Z,4.20
2018-12-02T04:52:46.915Z,4.20
2018-12-02T04:55:15.697Z,4.20
2018-12-02T04:57:44.456Z,4.20
2018-12-02T05:00:17.207Z,4.20
2018-12-02T05:02:47.135Z,4.20
2018-12-02T05:05:17.213Z,4.20
2018-12-02T05:07:45.984Z,4.20
2018-12-02T05:10:15.746Z,4.20
2018-12-02T05:12:44.665Z,4.20
2018-12-02T05:15:14.459Z,4.20
2018-12-02T05:17:43.322Z,4.10
2018-12-02T05:20:18.830Z,4.10
2018-12-02T05:22:47.627Z,4.10
2018-12-02T05:25:18.284Z,4.20
2018-12-02T05:27:46.023Z,4.10
2018-12-02T05:30:17.728Z,4.10
2018-12-02T05:32:47.540Z,4.10
2018-12-02T05:35:16.308Z,4.10
2018-12-02T05:37:45.109Z,4.00
2018-12-02T05:40:23.271Z,4.00
2018-12-02T05:42:53.022Z,4.00
2018-12-02T05:45:22.260Z,4.00
2018-12-02T05:47:51.006Z,4.00
2018-12-02T05:50:20.867Z,4.00
2018-12-02T05:52:57.424Z,4.00
2018-12-02T05:55:30.099Z,4.00
2018-12-02T05:57:58.860Z,4.10
2018-12-02T06:00:27.646Z,4.20
2018-12-02T06:02:56.548Z,4.30
2018-12-02T06:05:25.293Z,4.40
2018-12-02T06:07:54.077Z,4.40
2018-12-02T06:10:23.467Z,4.50
2018-12-02T06:12:52.557Z,4.40
2018-12-02T06:15:21.977Z,4.40
2018-12-02T06:17:50.722Z,4.30
2018-12-02T06:20:21.374Z,4.30
2018-12-02T06:22:50.899Z,4.30
2018-12-02T06:25:19.698Z,4.20
2018-12-02T06:27:48.460Z,4.10
2018-12-02T06:30:20.156Z,4.10
2018-12-02T06:32:53.075Z,4.10
2018-12-02T06:35:21.807Z,4.00
2018-12-02T06:37:51.259Z,4.00
2018-12-02T06:40:20.944Z,4.00
2018-12-02T06:42:50.134Z,4.00
2018-12-02T06:45:18.980Z,4.00
2018-12-02T06:47:47.770Z,4.00
2018-12-02T06:50:20.550Z,4.00
2018-12-02T06:52:49.286Z,4.10
2018-12-02T06:55:40.981Z,4.20
2018-12-02T06:58:20.419Z,4.30
2018-12-02T07:00:59.274Z,4.30
2018-12-02T07:03:55.068Z,4.40
2018-12-02T07:06:23.786Z,4.40
2018-12-02T07:08:52.520Z,4.50
2018-12-02T07:11:21.297Z,4.50
2018-12-02T07:13:50.055Z,4.50
2018-12-02T07:16:18.804Z,4.60
2018-12-02T07:18:52.159Z,4.60
2018-12-02T07:21:23.038Z,4.60
2018-12-02T07:23:53.435Z,4.60
2018-12-02T07:26:24.366Z,4.70
2018-12-02T07:28:53.071Z,4.70
2018-12-02T07:31:21.866Z,4.70
2018-12-02T07:33:50.622Z,4.70
2018-12-02T07:36:19.425Z,4.60
2018-12-02T07:38:56.438Z,4.60
2018-12-02T07:41:25.799Z,4.60
2018-12-02T07:43:54.543Z,4.60
2018-12-02T07:46:23.314Z,4.50
2018-12-02T07:48:52.154Z,4.50
2018-12-02T07:51:20.957Z,4.60
2018-12-02T07:53:49.661Z,4.60
2018-12-02T07:56:18.431Z,4.50
2018-12-02T07:58:47.128Z,4.50
2018-12-02T08:01:15.922Z,4.50
2018-12-02T08:03:44.711Z,4.50
2018-12-02T08:06:14.344Z,4.50
2018-12-02T08:08:43.105Z,4.60
2018-12-02T08:11:12.006Z,4.70
2018-12-02T08:13:40.820Z,4.70
2018-12-02T08:16:09.580Z,4.80
2018-12-02T08:18:38.396Z,4.90
2018-12-02T08:21:07.208Z,5.00
2018-12-02T08:23:35.963Z,5.10
2018-12-02T08:26:04.860Z,5.20
2018-12-02T08:28:33.647Z,5.30
2018-12-02T08:31:02.427Z,5.40
2018-12-02T08:33:31.177Z,5.50
2018-12-02T08:35:59.976Z,5.60
2018-12-02T08:38:28.792Z,5.70
2018-12-02T08:40:57.753Z,5.80
2018-12-02T08:43:27.398Z,5.90
2018-12-02T08:45:56.128Z,6.00
2018-12-02T08:48:25.041Z,6.10
2018-12-02T08:50:53.833Z,6.10
2018-12-02T08:53:22.615Z,6.20
2018-12-02T08:55:51.403Z,6.20
2018-12-02T08:58:20.193Z,6.20
2018-12-02T09:00:48.967Z,6.20
2018-12-02T09:03:17.658Z,6.30
2018-12-02T09:05:46.438Z,6.30
2018-12-02T09:08:15.197Z,6.30
2018-12-02T09:10:45.168Z,6.40
2018-12-02T09:13:13.329Z,6.40
2018-12-02T09:15:42.076Z,6.40
2018-12-02T09:18:11.302Z,6.50
2018-12-02T09:20:40.050Z,6.50
2018-12-02T09:23:10.386Z,6.50
2018-12-02T09:25:39.317Z,6.50
2018-12-02T09:28:09.018Z,6.60
2018-12-02T09:30:38.502Z,6.60
2018-12-02T09:33:07.378Z,6.60
2018-12-02T09:35:36.163Z,6.70
2018-12-02T09:38:06.588Z,6.70
2018-12-02T09:40:35.302Z,6.70
2018-12-02T09:43:04.497Z,6.80
2018-12-02T09:45:33.316Z,6.80
2018-12-02T09:48:02.288Z,6.80
2018-12-02T09:50:31.061Z,6.80
2018-12-02T09:52:59.790Z,6.80
2018-12-02T09:55:37.427Z,6.90
2018-12-02T09:58:08.112Z,6.90
2018-12-02T10:00:36.917Z,7.00
2018-12-02T10:03:06.359Z,7.00
2018-12-02T10:05:35.154Z,7.00
2018-12-02T10:08:03.891Z,7.10
2018-12-02T10:10:33.615Z,7.20
2018-12-02T10:13:05.241Z,7.20
2018-12-02T10:15:34.008Z,7.30
2018-12-02T10:18:02.728Z,7.30
2018-12-02T10:20:31.514Z,7.40
2018-12-02T10:23:00.252Z,7.40
2018-12-02T10:25:29.035Z,7.40
2018-12-02T10:27:57.790Z,7.50
2018-12-02T10:30:26.840Z,7.50
2018-12-02T10:32:56.680Z,7.50
2018-12-02T10:35:25.465Z,7.50
2018-12-02T10:37:54.785Z,7.60
2018-12-02T10:40:25.591Z,7.60
2018-12-02T10:42:54.342Z,7.60
2018-12-02T10:45:24.259Z,7.60
2018-12-02T10:47:55.042Z,7.60
2018-12-02T10:50:29.757Z,7.60
2018-12-02T10:52:59.632Z,7.60
2018-12-02T10:55:47.573Z,7.60
2018-12-02T10:58:33.257Z,7.60
2018-12-02T11:01:08.265Z,7.60
2018-12-02T11:03:37.041Z,7.60
2018-12-02T11:06:05.918Z,7.60
2018-12-02T11:08:34.668Z,7.60
2018-12-02T11:11:03.541Z,7.70
2018-12-02T11:13:32.435Z,7.80
2018-12-02T11:16:01.172Z,7.80
2018-12-02T11:18:29.945Z,7.80
2018-12-02T11:20:58.781Z,7.90
2018-12-02T11:23:27.498Z,8.00
2018-12-02T11:25:56.277Z,8.00
2018-12-02T11:28:25.031Z,8.00
2018-12-02T11:30:53.852Z,8.00
2018-12-02T11:33:22.704Z,8.00
2018-12-02T11:35:51.434Z,8.00
2018-12-02T11:38:20.282Z,8.10
2018-12-02T11:40:49.056Z,8.00
2018-12-02T11:43:17.758Z,8.00
2018-12-02T11:45:46.508Z,8.00
2018-12-02T11:48:15.226Z,7.90
2018-12-02T11:50:44.017Z,7.90
2018-12-02T11:53:12.773Z,7.90
2018-12-02T11:55:41.538Z,7.90
2018-12-02T11:58:10.285Z,7.90
2018-12-02T12:00:40.368Z,7.90
2018-12-02T12:03:09.084Z,7.90
2018-12-02T12:05:38.617Z,7.90
2018-12-02T12:08:10.576Z,7.90
2018-12-02T12:10:39.527Z,8.00
2018-12-02T12:13:08.335Z,8.00
2018-12-02T12:15:37.630Z,8.00
2018-12-02T12:18:08.452Z,8.00
2018-12-02T12:20:39.132Z,7.90
2018-12-02T12:23:09.649Z,7.90
2018-12-02T12:25:38.788Z,7.80
2018-12-02T12:28:08.818Z,7.80
2018-12-02T12:30:38.496Z,7.70
2018-12-02T12:33:08.778Z,7.70
2018-12-02T12:35:53.145Z,7.60
2018-12-02T12:38:22.429Z,7.60
2018-12-02T12:40:52.133Z,7.60
2018-12-02T12:43:27.368Z,7.50
2018-12-02T12:45:56.264Z,7.40
2018-12-02T12:48:25.126Z,7.40
2018-12-02T12:50:54.151Z,7.30
2018-12-02T12:53:23.036Z,7.30
2018-12-02T12:55:58.262Z,7.20
2018-12-02T12:58:28.249Z,7.20
2018-12-02T13:00:57.486Z,7.20
2018-12-02T13:03:26.627Z,7.20
2018-12-02T13:06:10.938Z,7.10
2018-12-02T13:08:40.715Z,7.10
2018-12-02T13:11:20.650Z,7.10
2018-12-02T13:13:54.104Z,7.10
2018-12-02T13:16:26.330Z,7.10
2018-12-02T13:18:55.393Z,7.10
2018-12-02T13:21:24.947Z,7.10
2018-12-02T13:24:01.652Z,7.10
2018-12-02T13:26:46.216Z,7.10
2018-12-02T13:29:18.091Z,7.10
2018-12-02T13:31:47.670Z,7.10
2018-12-02T13:34:16.511Z,7.10
2018-12-02T13:36:45.422Z,7.10
2018-12-02T13:39:14.224Z,7.10
2018-12-02T13:41:43.096Z,7.10
2018-12-02T13:44:11.994Z,7.10
2018-12-02T13:46:40.833Z,7.10
2018-12-02T13:49:09.827Z,7.20
2018-12-02T13:51:43.664Z,7.10
2018-12-02T13:54:18.588Z,7.10
2018-12-02T13:56:47.343Z,7.20
2018-12-02T13:59:16.157Z,7.10
2018-12-02T14:01:44.943Z,7.10
2018-12-02T14:04:13.715Z,7.10
2018-12-02T14:06:42.497Z,7.10
2018-12-02T14:09:11.297Z,7.00
2018-12-02T14:11:40.077Z,7.00
2018-12-02T14:14:09.683Z,7.00
2018-12-02T14:16:47.182Z,7.00
2018-12-02T14:19:16.008Z,7.00
2018-12-02T14:21:44.776Z,7.00
2018-12-02T14:24:13.571Z,7.00
2018-12-02T14:26:44.653Z,6.90
2018-12-02T14:29:16.382Z,7.00
2018-12-02T14:31:54.118Z,6.90
2018-12-02T14:34:22.918Z,6.90
2018-12-02T14:37:01.193Z,6.80
2018-12-02T14:39:30.250Z,6.80
2018-12-02T14:41:59.094Z,6.80
2018-12-02T14:44:28.030Z,6.80
2018-12-02T14:46:57.385Z,6.70
2018-12-02T14:49:26.304Z,6.70
2018-12-02T14:51:55.420Z,6.70
2018-12-02T14:54:24.328Z,6.70
2018-12-02T14:56:53.263Z,6.60
2018-12-02T14:59:23.050Z,6.60
2018-12-02T15:01:52.010Z,6.60
2018-12-02T15:04:20.803Z,6.60
2018-12-02T15:06:49.769Z,6.60
2018-12-02T15:09:18.685Z,6.60
2018-12-02T15:11:47.642Z,6.60
2018-12-02T15:14:17.176Z,6.60
2018-12-02T15:16:46.815Z,6.50
2018-12-02T15:19:16.142Z,6.50
2018-12-02T15:21:45.201Z,6.60
2018-12-02T15:24:14.994Z,6.60
2018-12-02T15:26:44.018Z,6.60
2018-12-02T15:29:13.330Z,6.60
2018-12-02T15:31:43.249Z,6.50
2018-12-02T15:34:30.525Z,6.60
2018-12-02T15:37:02.464Z,6.60
2018-12-02T15:39:31.785Z,6.60
2018-12-02T15:42:01.478Z,6.60
2018-12-02T15:44:30.535Z,6.60
2018-12-02T15:46:59.686Z,6.60
2018-12-02T15:49:30.821Z,6.70
2018-12-02T15:52:00.331Z,6.70
2018-12-02T15:54:30.109Z,6.70
2018-12-02T15:56:59.167Z,6.70
2018-12-02T15:59:29.917Z,6.70
2018-12-02T16:01:59.171Z,6.70
2018-12-02T16:04:29.120Z,6.80
2018-12-02T16:06:58.549Z,6.80
2018-12-02T16:09:27.610Z,6.80
2018-12-02T16:11:56.762Z,6.80
2018-12-02T16:14:26.020Z,6.80
2018-12-02T16:16:55.212Z,6.80
2018-12-02T16:19:24.157Z,6.90
2018-12-02T16:21:53.105Z,6.80
2018-12-02T16:24:21.996Z,6.90
2018-12-02T16:26:50.866Z,6.90
2018-12-02T16:29:19.923Z,6.90
2018-12-02T16:31:48.902Z,7.00
2018-12-02T16:34:17.872Z,7.00
2018-12-02T16:36:46.995Z,7.00
2018-12-02T16:39:15.881Z,7.00
2018-12-02T16:41:44.846Z,7.00
2018-12-02T16:44:13.847Z,7.00
2018-12-02T16:46:42.951Z,7.10
2018-12-02T16:49:11.932Z,7.00
2018-12-02T16:51:40.968Z,7.10
2018-12-02T16:54:09.918Z,7.10
2018-12-02T16:56:39.035Z,7.10
2018-12-02T16:59:19.213Z,7.10
2018-12-02T17:01:53.506Z,7.20
2018-12-02T17:04:22.545Z,7.20
2018-12-02T17:06:51.589Z,7.20
2018-12-02T17:09:20.538Z,7.20
2018-12-02T17:11:50.781Z,7.30
2018-12-02T17:14:21.476Z,7.30
2018-12-02T17:16:50.359Z,7.30
2018-12-02T17:19:19.384Z,7.30
2018-12-02T17:21:48.219Z,7.30
2018-12-02T17:24:17.642Z,7.30
2018-12-02T17:26:46.756Z,7.30
2018-12-02T17:29:17.929Z,7.40
2018-12-02T17:31:51.639Z,7.40
2018-12-02T17:34:20.825Z,7.40
2018-12-02T17:36:49.587Z,7.40
2018-12-02T17:39:21.725Z,7.50
2018-12-02T17:41:57.671Z,7.50
2018-12-02T17:44:26.505Z,7.50
2018-12-02T17:46:55.400Z,7.50
2018-12-02T17:49:24.181Z,7.60
2018-12-02T17:51:52.937Z,7.60
2018-12-02T17:54:21.801Z,7.60
2018-12-02T17:56:50.633Z,7.60
2018-12-02T17:59:19.387Z,7.60
2018-12-02T18:01:48.132Z,7.60
2018-12-02T18:04:16.927Z,7.70
2018-12-02T18:06:45.763Z,7.70
2018-12-02T18:09:15.859Z,7.70
2018-12-02T18:11:45.519Z,7.80
2018-12-02T18:14:14.320Z,7.80
2018-12-02T18:16:50.116Z,7.80
2018-12-02T18:19:15.126Z,7.80
2018-12-02T18:21:44.214Z,7.90
2018-12-02T18:24:12.999Z,7.90
2018-12-02T18:26:42.648Z,7.90
2018-12-02T18:29:11.747Z,8.00
2018-12-02T18:31:40.739Z,8.00
2018-12-02T18:34:11.647Z,8.10
2018-12-02T18:36:41.055Z,8.10
2018-12-02T18:39:13.307Z,8.10
2018-12-02T18:41:44.155Z,8.10
2018-12-02T18:44:14.796Z,8.20
2018-12-02T18:46:44.546Z,8.20
2018-12-02T18:49:15.683Z,8.20
2018-12-02T18:51:44.570Z,8.30
2018-12-02T18:54:13.427Z,8.30
2018-12-02T18:56:42.753Z,8.30
2018-12-02T18:59:11.594Z,8.40
2018-12-02T19:01:40.489Z,8.40
2018-12-02T19:04:09.259Z,8.40
2018-12-02T19:06:38.607Z,8.50
2018-12-02T19:09:11.412Z,8.50
2018-12-02T19:11:40.184Z,8.50
2018-12-02T19:14:08.893Z,8.50
2018-12-02T19:16:37.752Z,8.60
2018-12-02T19:19:07.761Z,8.60
2018-12-02T19:21:37.301Z,8.60
2018-12-02T19:24:08.056Z,8.60
2018-12-02T19:26:37.096Z,8.70
2018-12-02T19:29:07.583Z,8.70
2018-12-02T19:31:36.738Z,8.70
2018-12-02T19:34:06.197Z,8.70
2018-12-02T19:36:42.107Z,8.70
2018-12-02T19:39:11.663Z,8.80
2018-12-02T19:41:40.512Z,8.80
2018-12-02T19:44:09.369Z,8.80
2018-12-02T19:46:38.190Z,8.80
2018-12-02T19:49:07.018Z,8.80
2018-12-02T19:51:35.795Z,8.80
2018-12-02T19:54:04.879Z,8.80
2018-12-02T19:56:33.834Z,8.80
2018-12-02T19:59:03.799Z,8.80
2018-12-02T20:01:33.444Z,8.80
2018-12-02T20:04:02.727Z,8.80
2018-12-02T20:06:31.792Z,8.80
2018-12-02T20:09:00.917Z,8.80
2018-12-02T20:11:29.796Z,8.80
2018-12-02T20:14:01.967Z,8.80
2018-12-02T20:16:30.699Z,8.80
2018-12-02T20:19:00.299Z,8.80
2018-12-02T20:21:29.489Z,8.70
2018-12-02T20:25:06.547Z,8.70
2018-12-02T20:27:35.337Z,8.70
2018-12-02T20:30:05.649Z,8.80
2018-12-02T20:32:34.438Z,8.80
2018-12-02T20:35:03.391Z,8.80
2018-12-02T20:37:32.228Z,8.80
2018-12-02T20:40:01.145Z,8.80
2018-12-02T20:42:29.938Z,8.70
2018-12-02T20:44:59.099Z,8.60
2018-12-02T20:47:28.020Z,8.60
2018-12-02T20:49:56.822Z,8.60
2018-12-02T20:52:25.964Z,8.70
2018-12-02T20:54:54.752Z,8.70
2018-12-02T20:57:23.557Z,8.80
2018-12-02T20:59:52.337Z,8.80
2018-12-02T21:02:21.274Z,8.80
2018-12-02T21:04:50.609Z,8.80
2018-12-02T21:07:19.414Z,8.80
2018-12-02T21:09:48.205Z,8.80
2018-12-02T21:12:17.027Z,8.80
2018-12-02T21:14:46.601Z,8.80
2018-12-02T21:17:15.523Z,8.80
2018-12-02T21:19:44.279Z,8.80
2018-12-02T21:22:13.111Z,8.80
2018-12-02T21:24:41.861Z,8.80
2018-12-02T21:27:10.649Z,8.80
2018-12-02T21:29:39.473Z,8.80
2018-12-02T21:32:08.270Z,8.80
2018-12-02T21:34:37.608Z,8.80
2018-12-02T21:37:07.371Z,8.90
2018-12-02T21:39:35.290Z,8.90
2018-12-02T21:42:04.121Z,8.90
2018-12-02T21:44:32.876Z,8.80
2018-12-02T21:47:01.677Z,8.80
2018-12-02T21:49:30.603Z,8.80
2018-12-02T21:51:59.380Z,8.80
2018-12-02T21:54:28.126Z,8.80
2018-12-02T21:56:57.010Z,8.70
2018-12-02T21:59:26.472Z,8.70
2018-12-02T22:01:55.261Z,8.60
2018-12-02T22:04:24.154Z,8.60
2018-12-02T22:06:52.940Z,8.60
2018-12-02T22:09:22.265Z,8.50
2018-12-02T22:11:51.121Z,8.40
2018-12-02T22:14:20.895Z,8.30
2018-12-02T22:16:49.727Z,8.30
2018-12-02T22:19:18.467Z,8.20
2018-12-02T22:21:47.229Z,8.20
2018-12-02T22:24:16.040Z,8.20
2018-12-02T22:26:44.864Z,8.20
2018-12-02T22:29:13.649Z,8.30
2018-12-02T22:31:42.543Z,8.20
2018-12-02T22:34:11.387Z,8.20
2018-12-02T22:36:40.124Z,8.30
2018-12-02T22:39:09.062Z,8.30
2018-12-02T22:41:37.804Z,8.40
2018-12-02T22:44:06.613Z,8.40
2018-12-02T22:46:35.430Z,8.40
2018-12-02T22:49:04.263Z,8.50
2018-12-02T22:51:33.056Z,8.50
2018-12-02T22:54:01.917Z,8.50
2018-12-02T22:56:30.729Z,8.50
2018-12-02T22:58:59.490Z,8.60
2018-12-02T23:01:33.551Z,8.60
2018-12-02T23:04:02.312Z,8.60
2018-12-02T23:06:31.111Z,8.60
2018-12-02T23:08:59.873Z,8.60
2018-12-02T23:11:28.676Z,8.70
2018-12-02T23:13:57.482Z,8.60
2018-12-02T23:16:26.232Z,8.70
2018-12-02T23:18:54.982Z,8.60
2018-12-02T23:21:23.796Z,8.60
2018-12-02T23:23:52.711Z,8.60
2018-12-02T23:26:21.453Z,8.60
2018-12-02T23:28:50.310Z,8.60
2018-12-02T23:31:19.039Z,8.60
2018-12-02T23:33:47.871Z,8.60
2018-12-02T23:36:16.737Z,8.70
2018-12-02T23:38:45.496Z,8.70
2018-12-02T23:41:14.310Z,8.80
2018-12-02T23:43:43.080Z,8.70
2018-12-02T23:46:11.875Z,8.70
2018-12-02T23:48:40.664Z,8.70
2018-12-02T23:51:09.504Z,8.70
2018-12-02T23:53:38.289Z,8.70
2018-12-02T23:56:07.089Z,8.70
2018-12-02T23:58:35.844Z,8.70
